createdAt,value
2019-03-08T00:02:13.142Z,6.08
2019-03-08T00:04:43.327Z,4.62
2019-03-08T00:07:13.329Z,7.10
2019-03-08T00:09:44.477Z,5.47
2019-03-08T00:12:14.730Z,3.95
2019-03-08T00:14:44.594Z,3.72
2019-03-08T00:19:43.136Z,4.45
2019-03-08T00:22:12.681Z,5.00
2019-03-08T00:27:11.143Z,5.05
2019-03-08T00:29:41.101Z,4.83
2019-03-08T00:32:10.922Z,8.38
2019-03-08T00:34:40.848Z,5.03
2019-03-08T00:37:10.321Z,5.33
2019-03-08T00:42:09.019Z,5.37
2019-03-08T00:44:38.562Z,4.92
2019-03-08T00:47:08.536Z,4.80
2019-03-08T00:49:38.136Z,3.95
2019-03-08T00:52:07.651Z,5.97
2019-03-08T00:57:06.431Z,3.50
2019-03-08T00:59:35.783Z,3.95
2019-03-08T01:02:05.701Z,4.05
2019-03-08T01:04:35.792Z,4.60
2019-03-08T01:07:05.542Z,3.83
2019-03-08T01:12:04.037Z,2.72
2019-03-08T01:14:33.845Z,3.30
2019-03-08T01:17:04.595Z,3.40
2019-03-08T01:24:31.890Z,4.33
2019-03-08T01:27:01.647Z,5.00
2019-03-08T01:29:31.332Z,3.45
2019-03-08T01:32:00.963Z,4.75
2019-03-08T01:34:30.873Z,4.87
2019-03-08T01:37:03.456Z,2.72
2019-03-08T01:39:33.042Z,4.03
2019-03-08T01:42:02.683Z,3.05
2019-03-08T01:44:33.874Z,2.52
2019-03-08T01:47:04.145Z,1.82
2019-03-08T01:49:33.853Z,3.17
2019-03-08T01:52:04.068Z,3.55
2019-03-08T01:54:33.788Z,3.33
2019-03-08T01:57:03.067Z,5.45
2019-03-08T01:59:32.595Z,3.52
2019-03-08T02:02:02.560Z,3.80
2019-03-08T02:04:31.991Z,2.70
2019-03-08T02:07:01.764Z,4.12
2019-03-08T02:09:31.585Z,4.83
2019-03-08T02:14:29.780Z,4.78
2019-03-08T02:17:02.843Z,3.30
2019-03-08T02:19:32.605Z,3.75
2019-03-08T02:24:30.901Z,1.80
2019-03-08T02:27:00.657Z,1.40
2019-03-08T02:32:02.472Z,1.98
2019-03-08T02:34:32.368Z,2.42
2019-03-08T02:37:01.831Z,1.12
2019-03-08T02:39:31.323Z,3.77
2019-03-08T02:42:02.032Z,1.50
2019-03-08T02:44:31.536Z,1.02
2019-03-08T02:47:01.056Z,2.17
2019-03-08T02:49:30.988Z,1.30
2019-03-08T02:52:00.822Z,1.05
2019-03-08T02:54:30.167Z,0.82
2019-03-08T02:56:59.858Z,3.00
2019-03-08T02:59:29.541Z,2.37
2019-03-08T03:01:58.847Z,1.20
2019-03-08T03:04:28.639Z,0.75
2019-03-08T03:07:00.541Z,3.65
2019-03-08T03:09:30.044Z,0.82
2019-03-08T03:11:59.603Z,0.78
2019-03-08T03:14:29.119Z,2.05
2019-03-08T03:16:58.614Z,0.53
2019-03-08T03:19:28.830Z,1.05
2019-03-08T03:21:58.320Z,1.12
2019-03-08T03:24:27.844Z,1.87
2019-03-08T03:26:57.483Z,0.80
2019-03-08T03:29:27.322Z,2.40
2019-03-08T03:31:56.658Z,1.85
2019-03-08T03:34:27.464Z,0.75
2019-03-08T03:36:57.608Z,3.42
2019-03-08T03:41:56.542Z,1.50
2019-03-08T03:44:27.075Z,1.07
2019-03-08T03:46:57.139Z,1.57
2019-03-08T03:49:26.896Z,1.35
2019-03-08T03:51:57.812Z,2.70
2019-03-08T03:54:27.549Z,1.47
2019-03-08T04:04:24.366Z,1.12
2019-03-08T04:06:54.419Z,1.47
2019-03-08T04:09:24.320Z,1.10
2019-03-08T04:11:53.962Z,2.00
2019-03-08T04:14:23.824Z,1.90
2019-03-08T04:16:53.519Z,2.10
2019-03-08T04:19:22.838Z,2.50
2019-03-08T04:21:52.117Z,3.47
2019-03-08T04:24:22.051Z,3.67
2019-03-08T04:26:51.846Z,2.33
2019-03-08T04:29:21.313Z,2.77
2019-03-08T04:31:51.029Z,3.65
2019-03-08T04:34:20.523Z,2.52
2019-03-08T04:36:50.138Z,1.45
2019-03-08T04:39:19.657Z,2.08
2019-03-08T04:41:49.316Z,2.02
2019-03-08T04:44:18.836Z,2.58
2019-03-08T04:46:48.314Z,2.25
2019-03-08T04:49:17.655Z,1.22
2019-03-08T04:54:15.799Z,1.25
2019-03-08T04:56:45.167Z,1.62
2019-03-08T04:59:14.969Z,0.85
2019-03-08T05:01:44.596Z,1.82
2019-03-08T05:04:14.421Z,2.10
2019-03-08T05:06:43.850Z,1.27
2019-03-08T05:09:14.140Z,1.47
2019-03-08T05:11:43.760Z,0.95
2019-03-08T05:14:13.529Z,1.75
2019-03-08T05:16:43.020Z,0.78
2019-03-08T05:19:12.787Z,1.75
2019-03-08T05:21:42.343Z,1.65
2019-03-08T05:24:11.839Z,2.87
2019-03-08T05:26:41.494Z,3.70
2019-03-08T05:29:10.874Z,1.45
2019-03-08T05:31:40.552Z,3.25
2019-03-08T05:34:10.317Z,1.50
2019-03-08T05:36:40.312Z,1.50
2019-03-08T05:39:13.809Z,1.70
2019-03-08T05:41:43.548Z,1.87
2019-03-08T05:44:16.101Z,1.72
2019-03-08T05:46:45.646Z,1.82
2019-03-08T05:49:15.321Z,1.87
2019-03-08T05:51:45.328Z,1.10
2019-03-08T05:54:15.025Z,4.62
2019-03-08T05:56:44.721Z,1.57
2019-03-08T06:06:40.907Z,3.52
2019-03-08T06:09:10.310Z,4.35
2019-03-08T06:11:40.166Z,2.12
2019-03-08T06:14:09.643Z,1.35
2019-03-08T06:19:08.227Z,3.08
2019-03-08T06:21:37.799Z,2.37
2019-03-08T06:24:08.697Z,2.58
2019-03-08T06:26:38.790Z,1.32
2019-03-08T06:29:08.115Z,1.95
2019-03-08T06:31:38.152Z,3.33
2019-03-08T06:34:07.635Z,3.40
2019-03-08T06:36:37.497Z,2.92
2019-03-08T06:39:08.105Z,2.37
2019-03-08T06:41:37.801Z,2.65
2019-03-08T06:44:07.451Z,3.02
2019-03-08T06:46:40.763Z,3.10
2019-03-08T06:49:11.214Z,3.22
2019-03-08T06:51:41.030Z,1.90
2019-03-08T06:54:11.048Z,2.20
2019-03-08T06:56:40.857Z,3.50
2019-03-08T06:59:22.149Z,3.15
2019-03-08T07:01:52.107Z,3.20
2019-03-08T07:04:21.666Z,1.70
2019-03-08T07:06:51.457Z,3.35
2019-03-08T07:09:21.071Z,3.08
2019-03-08T07:11:50.859Z,2.27
2019-03-08T07:14:20.545Z,2.47
2019-03-08T07:16:50.035Z,2.75
2019-03-08T07:19:19.806Z,3.37
2019-03-08T07:22:15.335Z,2.62
2019-03-08T07:25:03.191Z,2.52
2019-03-08T07:28:04.757Z,2.75
2019-03-08T07:31:09.106Z,2.70
2019-03-08T07:33:58.455Z,2.30
2019-03-08T07:36:46.388Z,3.60
2019-03-08T07:39:36.540Z,1.25
2019-03-08T07:42:35.807Z,2.00
2019-03-08T07:45:32.503Z,1.77
2019-03-08T07:48:30.981Z,3.12
2019-03-08T07:51:19.085Z,2.55
2019-03-08T07:54:17.303Z,3.58
2019-03-08T07:57:05.302Z,2.05
2019-03-08T08:00:06.702Z,2.12
2019-03-08T08:02:52.539Z,2.70
2019-03-08T08:05:47.687Z,3.75
2019-03-08T08:08:36.806Z,3.45
2019-03-08T08:11:29.113Z,2.47
2019-03-08T08:14:05.646Z,4.53
2019-03-08T08:16:46.461Z,3.80
2019-03-08T08:19:51.552Z,3.17
2019-03-08T08:28:04.481Z,4.42
2019-03-08T08:30:53.825Z,5.33
2019-03-08T08:33:40.960Z,4.85
2019-03-08T08:36:24.517Z,5.03
2019-03-08T08:39:11.998Z,9.15
2019-03-08T08:41:48.310Z,11.97
2019-03-08T08:44:43.060Z,3.35
2019-03-08T08:47:31.039Z,3.47
2019-03-08T08:50:19.313Z,4.03
2019-03-08T08:53:17.845Z,3.55
2019-03-08T08:56:07.552Z,4.70
2019-03-08T09:01:34.310Z,5.17
2019-03-08T09:04:23.515Z,3.52
2019-03-08T09:07:15.667Z,5.45
2019-03-08T09:10:00.908Z,4.40
2019-03-08T09:12:38.023Z,3.15
2019-03-08T09:15:32.316Z,5.47
2019-03-08T09:18:21.515Z,5.45
2019-03-08T09:21:20.300Z,5.62
2019-03-08T09:24:00.417Z,4.62
2019-03-08T09:26:52.794Z,4.78
2019-03-08T09:29:41.741Z,4.75
2019-03-08T09:32:24.415Z,3.72
2019-03-08T09:35:17.838Z,3.45
2019-03-08T09:37:55.890Z,3.67
2019-03-08T09:40:38.297Z,3.45
2019-03-08T09:43:39.699Z,2.85
2019-03-08T09:46:44.708Z,3.95
2019-03-08T09:49:26.000Z,6.30
2019-03-08T09:52:12.058Z,5.03
2019-03-08T09:54:53.069Z,6.85
2019-03-08T09:57:38.131Z,5.03
2019-03-08T10:00:41.320Z,5.35
2019-03-08T10:03:30.595Z,4.55
2019-03-08T10:08:52.698Z,4.25
2019-03-08T10:11:37.660Z,3.95
2019-03-08T10:14:25.367Z,3.47
2019-03-08T10:17:20.544Z,4.20
2019-03-08T10:20:11.949Z,4.03
2019-03-08T10:23:03.682Z,4.00
2019-03-08T10:25:52.708Z,3.17
2019-03-08T10:28:40.825Z,4.03
2019-03-08T10:31:20.554Z,6.12
2019-03-08T10:34:12.717Z,3.55
2019-03-08T10:37:00.722Z,3.95
2019-03-08T10:42:35.366Z,7.08
2019-03-08T10:45:23.816Z,3.75
2019-03-08T10:52:42.315Z,4.33
2019-03-08T10:55:31.573Z,4.20
2019-03-08T10:58:10.496Z,4.65
2019-03-08T11:01:01.317Z,5.20
2019-03-08T11:03:56.790Z,6.12
2019-03-08T11:06:45.620Z,3.62
2019-03-08T11:12:26.452Z,4.45
2019-03-08T11:15:24.356Z,4.45
2019-03-08T11:18:09.862Z,4.87
2019-03-08T11:21:09.996Z,4.67
2019-03-08T11:23:58.045Z,3.83
2019-03-08T11:26:37.469Z,5.75
2019-03-08T11:29:17.371Z,4.30
2019-03-08T11:32:05.889Z,5.05
2019-03-08T11:35:08.154Z,4.62
2019-03-08T11:37:45.308Z,5.50
2019-03-08T11:40:35.004Z,3.33
2019-03-08T11:43:24.463Z,4.20
2019-03-08T11:46:12.314Z,4.20
2019-03-08T11:49:00.172Z,5.40
2019-03-08T11:51:53.592Z,2.98
2019-03-08T11:54:42.526Z,6.12
2019-03-08T11:57:34.715Z,4.28
2019-03-08T12:03:13.873Z,3.40
2019-03-08T12:06:05.157Z,3.90
2019-03-08T12:09:06.487Z,3.37
2019-03-08T12:12:11.542Z,3.85
2019-03-08T12:15:00.712Z,4.08
2019-03-08T12:20:20.026Z,5.25
2019-03-08T12:23:14.662Z,3.22
2019-03-08T12:31:40.573Z,3.25
2019-03-08T12:40:09.994Z,3.77
2019-03-08T12:43:07.568Z,3.47
2019-03-08T12:49:00.619Z,4.40
2019-03-08T12:54:45.875Z,5.53
2019-03-08T12:57:42.605Z,6.62
2019-03-08T13:00:33.327Z,4.00
2019-03-08T13:03:28.772Z,4.42
2019-03-08T13:06:19.284Z,4.25
2019-03-08T13:09:08.839Z,6.85
2019-03-08T13:11:39.309Z,5.78
2019-03-08T13:14:10.649Z,4.28
2019-03-08T13:16:40.336Z,4.83
2019-03-08T13:19:11.333Z,4.67
2019-03-08T13:21:41.656Z,5.33
2019-03-08T13:24:12.154Z,5.30
2019-03-08T13:26:41.850Z,5.60
2019-03-08T13:29:12.200Z,6.12
2019-03-08T13:31:42.128Z,4.67
2019-03-08T13:34:12.130Z,7.33
2019-03-08T13:36:41.600Z,6.33
2019-03-08T13:41:45.574Z,5.65
2019-03-08T13:44:18.567Z,5.05
2019-03-08T13:51:50.509Z,4.10
2019-03-08T13:54:25.563Z,5.17
2019-03-08T13:59:23.701Z,7.03
2019-03-08T14:01:54.961Z,5.17
2019-03-08T14:04:25.700Z,6.30
2019-03-08T14:06:56.469Z,4.67
2019-03-08T14:09:26.593Z,4.58
2019-03-08T14:14:25.441Z,5.50
2019-03-08T14:16:55.177Z,4.67
2019-03-08T14:19:24.990Z,6.55
2019-03-08T14:21:54.408Z,6.28
2019-03-08T14:24:25.050Z,4.22
2019-03-08T14:26:54.617Z,5.00
2019-03-08T14:32:02.557Z,3.98
2019-03-08T14:37:01.457Z,7.10
2019-03-08T14:39:31.784Z,6.37
2019-03-08T14:42:20.860Z,4.30
2019-03-08T14:44:55.050Z,6.25
2019-03-08T14:47:34.382Z,9.00
2019-03-08T14:50:06.636Z,7.55
2019-03-08T14:52:36.858Z,6.50
2019-03-08T14:55:13.617Z,6.20
2019-03-08T15:02:52.862Z,9.15
2019-03-08T15:05:28.072Z,8.00
2019-03-08T15:07:58.320Z,7.00
2019-03-08T15:10:38.793Z,6.30
2019-03-08T15:13:01.132Z,7.35
2019-03-08T15:15:31.166Z,11.30
2019-03-08T15:18:01.325Z,8.05
2019-03-08T15:20:32.001Z,10.60
2019-03-08T15:23:01.841Z,8.43
2019-03-08T15:25:31.903Z,10.50
2019-03-08T15:28:01.896Z,7.87
2019-03-08T15:30:31.898Z,9.90
2019-03-08T15:38:00.651Z,6.05
2019-03-08T15:43:04.866Z,5.62
2019-03-08T15:45:34.809Z,3.45
2019-03-08T15:48:04.621Z,3.72
2019-03-08T15:53:04.308Z,5.35
2019-03-08T15:55:34.052Z,3.55
2019-03-08T15:58:04.307Z,7.15
2019-03-08T16:00:34.828Z,3.92
2019-03-08T16:03:04.561Z,4.97
2019-03-08T16:08:04.022Z,5.95
2019-03-08T16:10:34.265Z,5.78
2019-03-08T16:13:04.428Z,2.90
2019-03-08T16:15:35.957Z,5.30
2019-03-08T16:18:06.806Z,5.95
2019-03-08T16:20:38.644Z,4.10
2019-03-08T16:23:08.662Z,4.67
2019-03-08T16:25:41.162Z,4.03
2019-03-08T16:28:10.898Z,4.08
2019-03-08T16:30:43.902Z,4.83
2019-03-08T16:33:36.331Z,3.95
2019-03-08T16:36:29.014Z,4.60
2019-03-08T16:39:06.717Z,4.35
2019-03-08T16:41:58.598Z,4.45
2019-03-08T16:44:54.484Z,4.67
2019-03-08T16:53:13.687Z,3.92
2019-03-08T16:55:53.148Z,4.22
2019-03-08T16:58:41.519Z,4.78
2019-03-08T17:01:19.127Z,6.25
2019-03-08T17:04:16.574Z,9.93
2019-03-08T17:07:07.719Z,4.22
2019-03-08T17:10:12.321Z,4.83
2019-03-08T17:13:20.823Z,5.45
2019-03-08T17:16:02.049Z,6.22
2019-03-08T17:18:49.306Z,5.90
2019-03-08T17:21:38.525Z,7.47
2019-03-08T17:24:26.799Z,6.12
2019-03-08T17:27:17.819Z,5.80
2019-03-08T17:30:07.111Z,9.58
2019-03-08T17:32:57.515Z,7.40
2019-03-08T17:35:46.591Z,5.97
2019-03-08T17:41:05.657Z,5.75
2019-03-08T17:46:42.515Z,6.00
2019-03-08T17:49:32.560Z,5.70
2019-03-08T17:55:15.463Z,8.30
2019-03-08T17:58:04.782Z,7.45
2019-03-08T18:00:52.951Z,7.10
2019-03-08T18:03:48.145Z,6.15
2019-03-08T18:06:40.904Z,8.13
2019-03-08T18:09:25.666Z,4.95
2019-03-08T18:15:15.307Z,6.65
2019-03-08T18:17:56.564Z,6.20
2019-03-08T18:23:39.109Z,8.85
2019-03-08T18:26:20.477Z,7.92
2019-03-08T18:32:01.342Z,8.20
2019-03-08T18:34:46.329Z,12.40
2019-03-08T18:37:36.153Z,9.05
2019-03-08T18:40:36.581Z,7.35
2019-03-08T18:43:23.304Z,7.78
2019-03-08T18:49:12.660Z,9.30
2019-03-08T18:54:33.513Z,8.83
2019-03-08T19:00:32.397Z,9.25
2019-03-08T19:03:27.178Z,12.78
2019-03-08T19:06:26.663Z,12.30
2019-03-08T19:09:18.923Z,11.55
2019-03-08T19:12:23.733Z,10.18
2019-03-08T19:15:22.148Z,11.08
2019-03-08T19:18:11.648Z,10.08
2019-03-08T19:21:04.834Z,8.25
2019-03-08T19:23:55.586Z,6.95
2019-03-08T19:35:27.668Z,10.05
2019-03-08T19:38:15.316Z,7.53
2019-03-08T19:41:06.815Z,10.82
2019-03-08T19:43:47.143Z,10.53
2019-03-08T19:46:35.617Z,9.53
2019-03-08T19:49:25.134Z,7.15
2019-03-08T19:52:13.537Z,8.38
2019-03-08T19:57:39.563Z,11.45
2019-03-08T20:00:31.572Z,9.40
2019-03-08T20:05:59.098Z,10.45
2019-03-08T20:08:46.833Z,13.88
2019-03-08T20:11:32.608Z,11.25
2019-03-08T20:17:21.357Z,15.35
2019-03-08T20:20:09.394Z,18.37
2019-03-08T20:23:05.273Z,13.55
2019-03-08T20:26:10.319Z,18.62
2019-03-08T20:28:58.664Z,13.20
2019-03-08T20:34:38.515Z,15.15
2019-03-08T20:37:26.894Z,17.17
2019-03-08T20:40:13.099Z,15.43
2019-03-08T20:43:01.508Z,12.85
2019-03-08T20:45:47.786Z,10.80
2019-03-08T20:48:18.127Z,12.40
2019-03-08T20:50:48.669Z,20.27
2019-03-08T20:53:19.919Z,24.43
2019-03-08T20:55:50.075Z,16.45
2019-03-08T20:58:20.141Z,16.12
2019-03-08T21:00:50.700Z,13.32
2019-03-08T21:03:21.148Z,13.68
2019-03-08T21:05:52.318Z,13.35
2019-03-08T21:08:22.352Z,12.50
2019-03-08T21:10:52.678Z,20.27
2019-03-08T21:13:23.774Z,21.93
2019-03-08T21:15:54.130Z,31.33
2019-03-08T21:18:24.145Z,24.50
2019-03-08T21:20:54.622Z,35.13
2019-03-08T21:23:24.967Z,30.52
2019-03-08T21:25:54.954Z,40.15
2019-03-08T21:28:25.318Z,27.65
2019-03-08T21:33:25.492Z,13.15
2019-03-08T21:35:56.573Z,12.18
2019-03-08T21:38:26.858Z,11.70
2019-03-08T21:40:57.132Z,11.75
2019-03-08T21:43:27.194Z,9.15
2019-03-08T21:45:56.913Z,11.25
2019-03-08T21:48:26.930Z,10.20
2019-03-08T21:50:56.749Z,12.82
2019-03-08T21:53:27.187Z,10.63
2019-03-08T21:55:58.909Z,11.90
2019-03-08T21:58:28.982Z,13.60
2019-03-08T22:00:59.952Z,11.05
2019-03-08T22:03:30.209Z,14.93
2019-03-08T22:06:00.517Z,13.90
2019-03-08T22:08:30.984Z,15.60
2019-03-08T22:11:19.555Z,9.78
2019-03-08T22:13:48.988Z,11.57
2019-03-08T22:16:18.961Z,12.85
2019-03-08T22:18:50.141Z,9.93
2019-03-08T22:21:20.566Z,10.00
2019-03-08T22:26:23.107Z,11.20
2019-03-08T22:28:53.313Z,14.55
2019-03-08T22:31:23.117Z,10.95
2019-03-08T22:33:53.309Z,8.95
2019-03-08T22:36:23.606Z,12.75
2019-03-08T22:46:20.585Z,14.18
2019-03-08T22:51:19.936Z,14.63
2019-03-08T22:53:49.910Z,11.83
2019-03-08T22:56:20.065Z,11.12
2019-03-08T22:58:50.108Z,10.28
2019-03-08T23:01:22.316Z,11.28
2019-03-08T23:03:54.723Z,13.15
2019-03-08T23:06:25.158Z,10.95
2019-03-08T23:08:55.053Z,13.43
2019-03-08T23:11:24.869Z,16.87
2019-03-08T23:13:54.608Z,10.13
2019-03-08T23:16:24.877Z,11.03
2019-03-08T23:18:54.647Z,12.98
2019-03-08T23:21:24.533Z,11.00
2019-03-08T23:23:54.512Z,9.50
2019-03-08T23:29:07.931Z,10.25
2019-03-08T23:31:42.319Z,8.90
2019-03-08T23:34:13.146Z,14.87
2019-03-08T23:36:42.892Z,9.18
2019-03-08T23:39:12.875Z,10.50
2019-03-08T23:41:43.179Z,11.50
2019-03-08T23:44:13.020Z,11.85
2019-03-08T23:46:42.593Z,12.45
2019-03-08T23:49:12.519Z,10.60
2019-03-08T23:51:41.989Z,11.08
2019-03-08T23:54:11.830Z,11.48
2019-03-08T23:56:41.709Z,9.98
2019-03-08T23:59:11.985Z,11.20
